sensor_id;sensor_type;location;lat;lon;timestamp;pressure;altitude;pressure_sealevel;temperature;humidity
55068;BME280;40965;52.368;9.712;2023-01-15T00:01:25;98952.88;;;7.20;100.00
55068;BME280;40965;52.368;9.712;2023-01-15T00:03:57;98953.19;;;7.05;100.00
55068;BME280;40965;52.368;9.712;2023-01-15T00:06:25;98975.94;;;6.97;100.00
55068;BME280;40965;52.368;9.712;2023-01-15T00:08:52;98982.19;;;6.88;100.00
55068;BME280;40965;52.368;9.712;2023-01-15T00:11:20;98984.94;;;6.80;100.00
55068;BME280;40965;52.368;9.712;2023-01-15T00:13:47;98980.72;;;6.74;100.00
55068;BME280;40965;52.368;9.712;2023-01-15T00:16:17;98992.13;;;6.67;100.00
55068;BME280;40965;52.368;9.712;2023-01-15T00:18:52;98977.47;;;6.63;100.00
55068;BME280;40965;52.368;9.712;2023-01-15T00:21:20;98989.72;;;6.58;100.00
55068;BME280;40965;52.368;9.712;2023-01-15T00:23:48;98976.81;;;6.53;100.00
55068;BME280;40965;52.368;9.712;2023-01-15T00:26:33;98982.19;;;6.42;100.00
55068;BME280;40965;52.368;9.712;2023-01-15T00:29:18;98981.56;;;6.29;100.00
55068;BME280;40965;52.368;9.712;2023-01-15T00:32:06;98974.84;;;6.18;100.00
55068;BME280;40965;52.368;9.712;2023-01-15T00:34:33;98997.59;;;6.06;100.00
55068;BME280;40965;52.368;9.712;2023-01-15T00:37:01;98988.19;;;5.99;100.00
55068;BME280;40965;52.368;9.712;2023-01-15T00:39:28;98996.06;;;5.91;100.00
55068;BME280;40965;52.368;9.712;2023-01-15T00:41:55;98990.16;;;5.83;100.00
55068;BME280;40965;52.368;9.712;2023-01-15T00:44:21;99004.94;;;5.78;100.00
55068;BME280;40965;52.368;9.712;2023-01-15T00:46:48;99016.28;;;5.72;100.00
55068;BME280;40965;52.368;9.712;2023-01-15T00:49:15;98998.19;;;5.68;100.00
55068;BME280;40965;52.368;9.712;2023-01-15T00:51:41;99019.91;;;5.62;100.00
55068;BME280;40965;52.368;9.712;2023-01-15T00:54:08;99021.72;;;5.55;100.00
55068;BME280;40965;52.368;9.712;2023-01-15T00:56:34;99026.13;;;5.52;100.00
55068;BME280;40965;52.368;9.712;2023-01-15T00:59:02;99032.25;;;5.44;100.00
55068;BME280;40965;52.368;9.712;2023-01-15T01:01:30;99036.72;;;5.36;100.00
55068;BME280;40965;52.368;9.712;2023-01-15T01:03:56;99042.81;;;5.32;100.00
55068;BME280;40965;52.368;9.712;2023-01-15T01:06:23;99042.84;;;5.29;100.00
55068;BME280;40965;52.368;9.712;2023-01-15T01:08:50;99038.63;;;5.23;100.00
55068;BME280;40965;52.368;9.712;2023-01-15T01:11:19;99038.63;;;5.23;100.00
55068;BME280;40965;52.368;9.712;2023-01-15T01:13:48;99045.53;;;5.21;100.00
55068;BME280;40965;52.368;9.712;2023-01-15T01:16:30;99052.50;;;5.19;100.00
55068;BME280;40965;52.368;9.712;2023-01-15T01:19:01;99047.31;;;5.19;100.00
55068;BME280;40965;52.368;9.712;2023-01-15T01:21:30;99050.72;;;5.21;100.00
55068;BME280;40965;52.368;9.712;2023-01-15T01:23:58;99056.88;;;5.16;100.00
55068;BME280;40965;52.368;9.712;2023-01-15T01:26:25;99048.25;;;5.12;100.00
55068;BME280;40965;52.368;9.712;2023-01-15T01:28:53;99049.09;;;5.14;100.00
55068;BME280;40965;52.368;9.712;2023-01-15T01:31:21;99042.16;;;5.14;100.00
55068;BME280;40965;52.368;9.712;2023-01-15T01:33:49;99067.25;;;5.16;100.00
55068;BME280;40965;52.368;9.712;2023-01-15T01:36:16;99072.47;;;5.11;100.00
55068;BME280;40965;52.368;9.712;2023-01-15T01:38:46;99093.34;;;5.02;100.00
55068;BME280;40965;52.368;9.712;2023-01-15T01:41:16;99094.19;;;5.04;100.00
55068;BME280;40965;52.368;9.712;2023-01-15T01:44:01;99098.53;;;5.03;100.00
55068;BME280;40965;52.368;9.712;2023-01-15T01:46:30;99095.13;;;4.96;100.00
55068;BME280;40965;52.368;9.712;2023-01-15T01:49:10;99104.75;;;4.84;100.00
55068;BME280;40965;52.368;9.712;2023-01-15T01:51:48;99100.50;;;4.81;100.00
55068;BME280;40965;52.368;9.712;2023-01-15T01:54:19;99089.28;;;4.77;100.00
55068;BME280;40965;52.368;9.712;2023-01-15T01:56:47;99095.38;;;4.75;100.00
55068;BME280;40965;52.368;9.712;2023-01-15T01:59:17;99079.03;;;4.68;100.00
55068;BME280;40965;52.368;9.712;2023-01-15T02:01:46;99097.09;;;4.76;100.00
55068;BME280;40965;52.368;9.712;2023-01-15T02:04:14;99090.25;;;4.69;100.00
55068;BME280;40965;52.368;9.712;2023-01-15T02:06:42;99098.94;;;4.64;100.00
55068;BME280;40965;52.368;9.712;2023-01-15T02:09:09;99088.59;;;4.60;100.00
55068;BME280;40965;52.368;9.712;2023-01-15T02:11:36;99090.34;;;4.59;100.00
55068;BME280;40965;52.368;9.712;2023-01-15T02:14:44;99100.63;;;4.64;100.00
55068;BME280;40965;52.368;9.712;2023-01-15T02:17:32;99084.31;;;4.59;100.00
55068;BME280;40965;52.368;9.712;2023-01-15T02:20:28;99101.53;;;4.61;100.00
55068;BME280;40965;52.368;9.712;2023-01-15T02:23:22;99101.53;;;4.60;100.00
55068;BME280;40965;52.368;9.712;2023-01-15T02:29:12;99098.06;;;4.62;100.00
55068;BME280;40965;52.368;9.712;2023-01-15T02:31:48;99099.81;;;4.62;100.00
55068;BME280;40965;52.368;9.712;2023-01-15T02:34:26;99082.53;;;4.61;100.00
55068;BME280;40965;52.368;9.712;2023-01-15T02:37:02;99096.34;;;4.63;100.00
55068;BME280;40965;52.368;9.712;2023-01-15T02:39:34;99099.78;;;4.63;100.00
55068;BME280;40965;52.368;9.712;2023-01-15T02:42:05;99104.94;;;4.67;100.00
55068;BME280;40965;52.368;9.712;2023-01-15T02:44:36;99106.69;;;4.66;100.00
55068;BME280;40965;52.368;9.712;2023-01-15T02:47:06;99089.41;;;4.65;100.00
55068;BME280;40965;52.368;9.712;2023-01-15T02:49:34;99089.44;;;4.62;100.00
55068;BME280;40965;52.368;9.712;2023-01-15T02:52:06;99085.94;;;4.68;97.22
55068;BME280;40965;52.368;9.712;2023-01-15T02:54:42;99080.72;;;4.71;94.55
55068;BME280;40965;52.368;9.712;2023-01-15T02:57:11;99083.28;;;4.74;96.47
55068;BME280;40965;52.368;9.712;2023-01-15T02:59:42;99062.50;;;4.77;96.00
55068;BME280;40965;52.368;9.712;2023-01-15T03:02:19;99069.47;;;4.72;96.09
55068;BME280;40965;52.368;9.712;2023-01-15T03:04:59;99068.66;;;4.67;96.83
55068;BME280;40965;52.368;9.712;2023-01-15T03:07:45;99065.25;;;4.61;98.38
55068;BME280;40965;52.368;9.712;2023-01-15T03:10:14;99060.91;;;4.63;97.65
55068;BME280;40965;52.368;9.712;2023-01-15T03:12:54;99059.25;;;4.59;97.89
55068;BME280;40965;52.368;9.712;2023-01-15T03:15:39;99069.47;;;4.70;96.92
55068;BME280;40965;52.368;9.712;2023-01-15T03:18:31;99071.22;;;4.71;97.04
55068;BME280;40965;52.368;9.712;2023-01-15T03:21:05;99074.66;;;4.70;98.32
55068;BME280;40965;52.368;9.712;2023-01-15T03:23:38;99052.16;;;4.75;98.36
55068;BME280;40965;52.368;9.712;2023-01-15T03:26:08;99073.75;;;4.74;98.63
55068;BME280;40965;52.368;9.712;2023-01-15T03:28:36;99066.03;;;4.71;99.59
55068;BME280;40965;52.368;9.712;2023-01-15T03:31:05;99056.50;;;4.73;100.00
55068;BME280;40965;52.368;9.712;2023-01-15T03:33:34;99066.88;;;4.70;100.00
55068;BME280;40965;52.368;9.712;2023-01-15T03:36:00;99053.91;;;4.73;100.00
55068;BME280;40965;52.368;9.712;2023-01-15T03:38:30;99065.13;;;4.74;100.00
55068;BME280;40965;52.368;9.712;2023-01-15T03:43:57;99056.50;;;4.73;100.00
55068;BME280;40965;52.368;9.712;2023-01-15T03:46:52;99059.13;;;4.70;100.00
55068;BME280;40965;52.368;9.712;2023-01-15T03:49:35;99054.75;;;4.74;100.00
55068;BME280;40965;52.368;9.712;2023-01-15T03:55:49;99037.47;;;4.76;100.00
55068;BME280;40965;52.368;9.712;2023-01-15T03:58:50;99032.16;;;4.84;100.00
55068;BME280;40965;52.368;9.712;2023-01-15T04:01:25;99029.59;;;4.82;100.00
55068;BME280;40965;52.368;9.712;2023-01-15T04:03:57;99026.09;;;4.88;100.00
55068;BME280;40965;52.368;9.712;2023-01-15T04:06:26;99031.28;;;4.85;100.00
55068;BME280;40965;52.368;9.712;2023-01-15T04:08:54;99030.44;;;4.84;100.00
55068;BME280;40965;52.368;9.712;2023-01-15T04:11:22;99033.03;;;4.86;100.00
55068;BME280;40965;52.368;9.712;2023-01-15T04:13:50;99033.03;;;4.86;100.00
55068;BME280;40965;52.368;9.712;2023-01-15T04:16:28;99012.22;;;4.89;99.94
55068;BME280;40965;52.368;9.712;2023-01-15T04:18:57;99011.34;;;4.93;99.16
55068;BME280;40965;52.368;9.712;2023-01-15T04:21:24;99018.31;;;4.88;99.73
55068;BME280;40965;52.368;9.712;2023-01-15T04:23:50;99008.88;;;4.80;100.00
55068;BME280;40965;52.368;9.712;2023-01-15T04:26:17;99002.81;;;4.82;100.00
55068;BME280;40965;52.368;9.712;2023-01-15T04:28:44;99024.38;;;4.84;100.00
55068;BME280;40965;52.368;9.712;2023-01-15T04:31:10;99023.53;;;4.83;100.00
55068;BME280;40965;52.368;9.712;2023-01-15T04:33:37;99032.06;;;4.91;99.40
55068;BME280;40965;52.368;9.712;2023-01-15T04:36:05;99034.66;;;4.91;99.18
55068;BME280;40965;52.368;9.712;2023-01-15T04:38:32;99025.25;;;4.84;99.91
55068;BME280;40965;52.368;9.712;2023-01-15T04:41:02;99022.72;;;4.81;100.00
55068;BME280;40965;52.368;9.712;2023-01-15T04:43:46;99008.03;;;4.80;100.00
55068;BME280;40965;52.368;9.712;2023-01-15T04:46:37;99007.16;;;4.81;100.00
55068;BME280;40965;52.368;9.712;2023-01-15T04:49:15;98992.47;;;4.80;100.00
55068;BME280;40965;52.368;9.712;2023-01-15T04:51:43;99011.53;;;4.76;100.00
55068;BME280;40965;52.368;9.712;2023-01-15T04:54:11;99022.72;;;4.79;100.00
55068;BME280;40965;52.368;9.712;2023-01-15T04:56:47;99025.28;;;4.83;100.00
55068;BME280;40965;52.368;9.712;2023-01-15T04:59:25;99011.50;;;4.79;100.00
55068;BME280;40965;52.368;9.712;2023-01-15T05:01:52;99019.34;;;4.73;100.00
55068;BME280;40965;52.368;9.712;2023-01-15T05:04:19;99032.31;;;4.73;100.00
55068;BME280;40965;52.368;9.712;2023-01-15T05:06:45;99009.84;;;4.73;100.00
55068;BME280;40965;52.368;9.712;2023-01-15T05:09:12;99016.78;;;4.70;100.00
55068;BME280;40965;52.368;9.712;2023-01-15T05:11:39;99021.13;;;4.68;100.00
55068;BME280;40965;52.368;9.712;2023-01-15T05:14:06;99028.91;;;4.68;100.00
55068;BME280;40965;52.368;9.712;2023-01-15T05:16:32;99017.63;;;4.70;100.00
55068;BME280;40965;52.368;9.712;2023-01-15T05:19:03;99013.34;;;4.71;100.00
55068;BME280;40965;52.368;9.712;2023-01-15T05:21:35;99004.66;;;4.73;100.00
55068;BME280;40965;52.368;9.712;2023-01-15T05:24:05;99003.75;;;4.74;100.00
55068;BME280;40965;52.368;9.712;2023-01-15T05:26:33;98995.09;;;4.78;100.00
55068;BME280;40965;52.368;9.712;2023-01-15T05:29:01;99005.47;;;4.78;100.00
55068;BME280;40965;52.368;9.712;2023-01-15T05:31:28;99006.28;;;4.80;100.00
55068;BME280;40965;52.368;9.712;2023-01-15T05:33:55;99012.38;;;4.78;100.00
55068;BME280;40965;52.368;9.712;2023-01-15T05:36:25;99001.97;;;4.81;100.00
55068;BME280;40965;52.368;9.712;2023-01-15T05:38:54;99008.03;;;4.80;100.00
55068;BME280;40965;52.368;9.712;2023-01-15T05:41:24;99009.66;;;4.90;98.82
55068;BME280;40965;52.368;9.712;2023-01-15T05:44:09;99011.38;;;4.88;99.40
55068;BME280;40965;52.368;9.712;2023-01-15T05:46:38;99003.59;;;4.88;99.20
55068;BME280;40965;52.368;9.712;2023-01-15T05:49:09;99014.81;;;4.90;99.09
55068;BME280;40965;52.368;9.712;2023-01-15T05:51:38;99006.16;;;4.91;99.01
55068;BME280;40965;52.368;9.712;2023-01-15T05:54:07;99006.22;;;4.87;99.62
55068;BME280;40965;52.368;9.712;2023-01-15T05:56:37;99012.25;;;4.90;99.30
55068;BME280;40965;52.368;9.712;2023-01-15T05:59:05;99013.00;;;4.97;98.66
55068;BME280;40965;52.368;9.712;2023-01-15T06:01:32;99019.03;;;4.97;98.71
55068;BME280;40965;52.368;9.712;2023-01-15T06:04:00;99014.81;;;4.90;99.46
55068;BME280;40965;52.368;9.712;2023-01-15T06:06:29;99023.50;;;4.88;99.23
55068;BME280;40965;52.368;9.712;2023-01-15T06:08:55;99024.28;;;4.94;98.76
55068;BME280;40965;52.368;9.712;2023-01-15T06:11:22;99025.97;;;4.99;98.18
55068;BME280;40965;52.368;9.712;2023-01-15T06:13:49;99025.88;;;5.05;97.36
55068;BME280;40965;52.368;9.712;2023-01-15T06:16:16;99028.50;;;5.03;97.28
55068;BME280;40965;52.368;9.712;2023-01-15T06:18:43;99017.19;;;5.09;96.87
55068;BME280;40965;52.368;9.712;2023-01-15T06:21:11;99035.19;;;5.20;95.52
55068;BME280;40965;52.368;9.712;2023-01-15T06:23:39;99019.72;;;5.12;95.96
55068;BME280;40965;52.368;9.712;2023-01-15T06:26:11;99027.41;;;5.20;94.58
55068;BME280;40965;52.368;9.712;2023-01-15T06:28:39;99037.75;;;5.24;93.93
55068;BME280;40965;52.368;9.712;2023-01-15T06:31:08;99025.75;;;5.16;94.30
55068;BME280;40965;52.368;9.712;2023-01-15T06:33:45;99036.19;;;5.09;94.96
55068;BME280;40965;52.368;9.712;2023-01-15T06:36:18;99035.47;;;4.98;95.75
55068;BME280;40965;52.368;9.712;2023-01-15T06:38:46;99036.31;;;4.99;95.88
55068;BME280;40965;52.368;9.712;2023-01-15T06:41:16;99025.97;;;4.97;96.04
55068;BME280;40965;52.368;9.712;2023-01-15T06:44:01;99038.91;;;5.00;95.74
55068;BME280;40965;52.368;9.712;2023-01-15T06:46:48;99035.41;;;5.03;95.39
55068;BME280;40965;52.368;9.712;2023-01-15T06:49:34;99030.34;;;4.93;96.02
55068;BME280;40965;52.368;9.712;2023-01-15T06:52:03;99028.63;;;4.92;96.33
55068;BME280;40965;52.368;9.712;2023-01-15T06:54:30;99016.53;;;4.90;96.73
55068;BME280;40965;52.368;9.712;2023-01-15T06:56:57;99036.44;;;4.89;96.27
55068;BME280;40965;52.368;9.712;2023-01-15T06:59:25;99031.19;;;4.95;95.74
55068;BME280;40965;52.368;9.712;2023-01-15T07:01:51;99039.84;;;4.94;95.95
55068;BME280;40965;52.368;9.712;2023-01-15T07:04:18;99045.84;;;4.96;95.76
55068;BME280;40965;52.368;9.712;2023-01-15T07:06:44;99033.75;;;4.97;95.53
55068;BME280;40965;52.368;9.712;2023-01-15T07:09:11;99036.38;;;4.95;95.27
55068;BME280;40965;52.368;9.712;2023-01-15T07:11:38;99015.63;;;4.94;95.79
55068;BME280;40965;52.368;9.712;2023-01-15T07:14:15;99029.47;;;4.94;95.66
55068;BME280;40965;52.368;9.712;2023-01-15T07:16:42;99031.19;;;4.95;95.34
55068;BME280;40965;52.368;9.712;2023-01-15T07:19:09;99029.50;;;4.93;95.42
55068;BME280;40965;52.368;9.712;2023-01-15T07:21:35;99034.66;;;4.91;95.38
55068;BME280;40965;52.368;9.712;2023-01-15T07:24:03;99032.97;;;4.92;95.32
55068;BME280;40965;52.368;9.712;2023-01-15T07:26:30;99035.50;;;4.95;94.46
55068;BME280;40965;52.368;9.712;2023-01-15T07:28:59;99040.72;;;4.92;94.50
55068;BME280;40965;52.368;9.712;2023-01-15T07:31:26;99040.81;;;4.84;94.97
55068;BME280;40965;52.368;9.712;2023-01-15T07:33:55;99049.41;;;4.89;94.36
55068;BME280;40965;52.368;9.712;2023-01-15T07:36:22;99039.94;;;4.84;95.07
55068;BME280;40965;52.368;9.712;2023-01-15T07:38:49;99037.34;;;4.84;94.90
55068;BME280;40965;52.368;9.712;2023-01-15T07:41:16;99032.25;;;4.79;95.46
55068;BME280;40965;52.368;9.712;2023-01-15T07:44:00;99040.88;;;4.78;95.80
55068;BME280;40965;52.368;9.712;2023-01-15T07:46:43;99032.13;;;4.88;95.16
55068;BME280;40965;52.368;9.712;2023-01-15T07:49:28;99036.47;;;4.86;94.84
55068;BME280;40965;52.368;9.712;2023-01-15T07:52:19;99039.97;;;4.82;94.96
55068;BME280;40965;52.368;9.712;2023-01-15T07:54:48;99045.22;;;4.77;95.75
55068;BME280;40965;52.368;9.712;2023-01-15T07:57:17;99049.50;;;4.80;95.38
55068;BME280;40965;52.368;9.712;2023-01-15T07:59:45;99045.09;;;4.88;94.30
55068;BME280;40965;52.368;9.712;2023-01-15T08:02:11;99049.38;;;4.91;94.16
55068;BME280;40965;52.368;9.712;2023-01-15T08:04:39;99067.56;;;4.89;94.23
55068;BME280;40965;52.368;9.712;2023-01-15T08:07:06;99057.84;;;5.07;92.29
55068;BME280;40965;52.368;9.712;2023-01-15T08:09:35;99053.53;;;5.04;92.33
55068;BME280;40965;52.368;9.712;2023-01-15T08:12:02;99057.81;;;5.08;92.27
55068;BME280;40965;52.368;9.712;2023-01-15T08:14:47;99049.16;;;5.09;92.19
55068;BME280;40965;52.368;9.712;2023-01-15T08:17:37;99045.66;;;5.12;91.66
55068;BME280;40965;52.368;9.712;2023-01-15T08:20:08;99033.53;;;5.14;91.76
55068;BME280;40965;52.368;9.712;2023-01-15T08:22:36;99039.56;;;5.16;91.37
55068;BME280;40965;52.368;9.712;2023-01-15T08:25:05;99046.59;;;5.08;92.13
55068;BME280;40965;52.368;9.712;2023-01-15T08:27:33;99037.06;;;5.07;92.08
55068;BME280;40965;52.368;9.712;2023-01-15T08:29:59;99039.69;;;5.07;91.99
55068;BME280;40965;52.368;9.712;2023-01-15T08:32:26;99045.75;;;5.04;92.41
55068;BME280;40965;52.368;9.712;2023-01-15T08:34:52;99046.69;;;5.00;92.58
55068;BME280;40965;52.368;9.712;2023-01-15T08:37:19;99050.00;;;5.11;91.77
55068;BME280;40965;52.368;9.712;2023-01-15T08:39:45;99057.72;;;5.16;91.21
55068;BME280;40965;52.368;9.712;2023-01-15T08:42:11;99051.69;;;5.14;91.92
55068;BME280;40965;52.368;9.712;2023-01-15T08:44:38;99055.97;;;5.18;91.42
55068;BME280;40965;52.368;9.712;2023-01-15T08:47:04;99056.00;;;5.13;91.49
55068;BME280;40965;52.368;9.712;2023-01-15T08:49:31;99070.56;;;5.27;90.89
55068;BME280;40965;52.368;9.712;2023-01-15T08:51:57;99063.72;;;5.23;90.71
55068;BME280;40965;52.368;9.712;2023-01-15T08:54:25;99058.53;;;5.23;90.35
55068;BME280;40965;52.368;9.712;2023-01-15T08:56:51;99058.59;;;5.17;90.79
55068;BME280;40965;52.368;9.712;2023-01-15T08:59:19;99071.59;;;5.12;90.97
55068;BME280;40965;52.368;9.712;2023-01-15T09:01:45;99065.53;;;5.14;89.99
55068;BME280;40965;52.368;9.712;2023-01-15T09:04:14;99068.09;;;5.18;89.85
55068;BME280;40965;52.368;9.712;2023-01-15T09:06:42;99062.00;;;5.19;89.04
55068;BME280;40965;52.368;9.712;2023-01-15T09:09:09;99074.97;;;5.20;88.88
55068;BME280;40965;52.368;9.712;2023-01-15T09:11:35;99061.09;;;5.21;88.55
55068;BME280;40965;52.368;9.712;2023-01-15T09:14:04;99070.59;;;5.25;88.03
55068;BME280;40965;52.368;9.712;2023-01-15T09:16:33;99086.09;;;5.30;87.10
55068;BME280;40965;52.368;9.712;2023-01-15T09:19:01;99071.34;;;5.34;87.26
55068;BME280;40965;52.368;9.712;2023-01-15T09:21:31;99076.38;;;5.44;86.39
55068;BME280;40965;52.368;9.712;2023-01-15T09:23:58;99084.16;;;5.47;86.05
55068;BME280;40965;52.368;9.712;2023-01-15T09:26:30;99078.88;;;5.52;85.74
55068;BME280;40965;52.368;9.712;2023-01-15T09:29:02;99105.63;;;5.57;85.51
55068;BME280;40965;52.368;9.712;2023-01-15T09:31:30;99080.47;;;5.62;85.31
55068;BME280;40965;52.368;9.712;2023-01-15T09:33:57;99084.69;;;5.70;84.21
55068;BME280;40965;52.368;9.712;2023-01-15T09:36:30;99075.88;;;5.80;83.96
55068;BME280;40965;52.368;9.712;2023-01-15T09:38:58;99090.53;;;5.86;83.88
55068;BME280;40965;52.368;9.712;2023-01-15T09:41:37;99085.31;;;5.86;82.85
55068;BME280;40965;52.368;9.712;2023-01-15T09:44:48;99083.53;;;5.91;82.68
55068;BME280;40965;52.368;9.712;2023-01-15T09:47:53;99071.47;;;5.87;82.89
55068;BME280;40965;52.368;9.712;2023-01-15T09:50:54;99075.84;;;5.83;82.71
55068;BME280;40965;52.368;9.712;2023-01-15T09:53:46;99070.56;;;5.89;82.46
55068;BME280;40965;52.368;9.712;2023-01-15T09:56:25;99060.13;;;5.92;81.95
55068;BME280;40965;52.368;9.712;2023-01-15T09:58:55;99069.50;;;6.03;81.41
55068;BME280;40965;52.368;9.712;2023-01-15T10:01:30;99065.00;;;6.12;80.58
55068;BME280;40965;52.368;9.712;2023-01-15T10:04:30;99065.78;;;6.19;79.16
55068;BME280;40965;52.368;9.712;2023-01-15T10:07:11;99057.84;;;6.27;78.55
55068;BME280;40965;52.368;9.712;2023-01-15T10:09:46;99072.38;;;6.40;76.78
55068;BME280;40965;52.368;9.712;2023-01-15T10:12:29;99073.78;;;6.57;76.35
55068;BME280;40965;52.368;9.712;2023-01-15T10:17:44;99073.00;;;6.53;74.16
55068;BME280;40965;52.368;9.712;2023-01-15T10:20:45;99080.97;;;6.42;74.54
55068;BME280;40965;52.368;9.712;2023-01-15T10:23:50;99070.91;;;6.24;74.12
55068;BME280;40965;52.368;9.712;2023-01-15T10:29:23;99089.41;;;6.04;75.17
55068;BME280;40965;52.368;9.712;2023-01-15T10:37:58;99098.34;;;5.84;76.64
55068;BME280;40965;52.368;9.712;2023-01-15T10:41:03;99094.06;;;5.78;76.99
55068;BME280;40965;52.368;9.712;2023-01-15T10:43:50;99082.75;;;5.83;76.63
55068;BME280;40965;52.368;9.712;2023-01-15T10:46:28;99083.53;;;5.91;76.48
55068;BME280;40965;52.368;9.712;2023-01-15T10:49:13;99083.47;;;5.94;77.15
55068;BME280;40965;52.368;9.712;2023-01-15T10:51:43;99084.34;;;5.93;77.97
55068;BME280;40965;52.368;9.712;2023-01-15T10:54:17;99083.44;;;5.99;78.56
55068;BME280;40965;52.368;9.712;2023-01-15T10:57:13;99075.56;;;6.03;78.57
55068;BME280;40965;52.368;9.712;2023-01-15T10:59:48;99078.91;;;6.11;78.57
55068;BME280;40965;52.368;9.712;2023-01-15T11:02:26;99077.81;;;6.25;78.62
55068;BME280;40965;52.368;9.712;2023-01-15T11:04:55;99081.22;;;6.28;77.82
55068;BME280;40965;52.368;9.712;2023-01-15T11:07:29;99061.38;;;6.23;77.54
55068;BME280;40965;52.368;9.712;2023-01-15T11:10:05;99084.06;;;6.13;77.59
55068;BME280;40965;52.368;9.712;2023-01-15T11:12:33;99059.84;;;6.11;76.96
55068;BME280;40965;52.368;9.712;2023-01-15T11:15:22;99078.91;;;6.10;76.91
55068;BME280;40965;52.368;9.712;2023-01-15T11:18:15;99071.81;;;6.21;76.58
55068;BME280;40965;52.368;9.712;2023-01-15T11:21:12;99073.56;;;6.21;77.34
55068;BME280;40965;52.368;9.712;2023-01-15T11:23:41;99057.94;;;6.22;76.95
55068;BME280;40965;52.368;9.712;2023-01-15T11:26:08;99071.03;;;6.16;76.65
55068;BME280;40965;52.368;9.712;2023-01-15T11:28:40;99063.19;;;6.19;75.63
55068;BME280;40965;52.368;9.712;2023-01-15T11:31:09;99063.81;;;6.34;74.88
55068;BME280;40965;52.368;9.712;2023-01-15T11:33:37;99078.22;;;6.53;74.02
55068;BME280;40965;52.368;9.712;2023-01-15T11:36:06;99068.47;;;6.63;73.85
55068;BME280;40965;52.368;9.712;2023-01-15T11:38:46;99072.81;;;6.64;71.60
55068;BME280;40965;52.368;9.712;2023-01-15T11:41:23;99059.72;;;6.67;71.78
55068;BME280;40965;52.368;9.712;2023-01-15T11:44:11;99063.25;;;6.65;70.91
55068;BME280;40965;52.368;9.712;2023-01-15T11:46:56;99058.88;;;6.67;70.31
55068;BME280;40965;52.368;9.712;2023-01-15T11:49:51;99064.84;;;6.72;71.12
55068;BME280;40965;52.368;9.712;2023-01-15T11:52:44;99060.59;;;6.68;68.80
55068;BME280;40965;52.368;9.712;2023-01-15T11:55:23;99051.91;;;6.69;68.49
55068;BME280;40965;52.368;9.712;2023-01-15T11:57:52;99084.78;;;6.71;68.98
55068;BME280;40965;52.368;9.712;2023-01-15T12:00:29;99051.72;;;6.79;67.29
55068;BME280;40965;52.368;9.712;2023-01-15T12:03:02;99089.09;;;6.72;67.39
55068;BME280;40965;52.368;9.712;2023-01-15T12:05:34;99082.25;;;6.68;68.49
55068;BME280;40965;52.368;9.712;2023-01-15T12:08:08;99078.63;;;6.77;67.52
55068;BME280;40965;52.368;9.712;2023-01-15T12:10:49;99089.94;;;6.74;66.59
55068;BME280;40965;52.368;9.712;2023-01-15T12:13:49;99095.09;;;6.77;66.27
55068;BME280;40965;52.368;9.712;2023-01-15T12:16:52;99084.75;;;6.74;65.38
55068;BME280;40965;52.368;9.712;2023-01-15T12:19:45;99076.09;;;6.72;64.72
55068;BME280;40965;52.368;9.712;2023-01-15T12:22:49;99078.66;;;6.75;63.81
55068;BME280;40965;52.368;9.712;2023-01-15T12:25:44;99062.03;;;6.83;62.84
55068;BME280;40965;52.368;9.712;2023-01-15T12:28:28;99077.69;;;6.81;62.79
55068;BME280;40965;52.368;9.712;2023-01-15T12:38:51;99069.34;;;6.62;64.08
55068;BME280;40965;52.368;9.712;2023-01-15T12:41:25;99070.34;;;6.56;64.64
55068;BME280;40965;52.368;9.712;2023-01-15T12:44:16;99061.72;;;6.53;63.75
55068;BME280;40965;52.368;9.712;2023-01-15T12:47:07;99058.34;;;6.48;64.59
55068;BME280;40965;52.368;9.712;2023-01-15T12:49:59;99055.75;;;6.48;65.37
55068;BME280;40965;52.368;9.712;2023-01-15T12:52:36;99051.44;;;6.48;65.75
55068;BME280;40965;52.368;9.712;2023-01-15T12:55:13;99061.84;;;6.48;64.73
55068;BME280;40965;52.368;9.712;2023-01-15T12:57:48;99018.41;;;6.52;64.44
55068;BME280;40965;52.368;9.712;2023-01-15T13:00:27;99051.31;;;6.54;65.13
55068;BME280;40965;52.368;9.712;2023-01-15T13:03:04;99047.84;;;6.54;65.40
55068;BME280;40965;52.368;9.712;2023-01-15T13:05:52;99056.50;;;6.54;65.25
55068;BME280;40965;52.368;9.712;2023-01-15T13:10:55;99069.59;;;6.50;65.84
55068;BME280;40965;52.368;9.712;2023-01-15T13:13:24;99071.34;;;6.48;66.32
55068;BME280;40965;52.368;9.712;2023-01-15T13:21:41;99059.38;;;6.40;66.90
55068;BME280;40965;52.368;9.712;2023-01-15T13:33:07;99048.94;;;6.42;66.23
55068;BME280;40965;52.368;9.712;2023-01-15T13:36:11;99049.69;;;6.49;66.11
55068;BME280;40965;52.368;9.712;2023-01-15T13:38:47;99020.13;;;6.53;65.43
55068;BME280;40965;52.368;9.712;2023-01-15T13:41:20;99060.81;;;6.55;64.92
55068;BME280;40965;52.368;9.712;2023-01-15T13:44:03;99041.78;;;6.55;64.56
55068;BME280;40965;52.368;9.712;2023-01-15T13:46:30;99040.78;;;6.60;64.83
55068;BME280;40965;52.368;9.712;2023-01-15T13:48:57;99041.59;;;6.64;64.56
55068;BME280;40965;52.368;9.712;2023-01-15T13:51:30;99033.84;;;6.62;65.40
55068;BME280;40965;52.368;9.712;2023-01-15T13:54:01;99036.41;;;6.64;64.74
55068;BME280;40965;52.368;9.712;2023-01-15T13:56:34;99038.97;;;6.66;64.70
55068;BME280;40965;52.368;9.712;2023-01-15T13:59:05;99032.00;;;6.66;65.18
55068;BME280;40965;52.368;9.712;2023-01-15T14:02:24;99031.97;;;6.69;65.11
55068;BME280;40965;52.368;9.712;2023-01-15T14:04:51;99026.06;;;6.59;65.97
55068;BME280;40965;52.368;9.712;2023-01-15T14:07:20;99043.47;;;6.57;66.36
55068;BME280;40965;52.368;9.712;2023-01-15T14:09:48;99045.88;;;6.67;66.12
55068;BME280;40965;52.368;9.712;2023-01-15T14:13:06;99031.16;;;6.66;66.00
55068;BME280;40965;52.368;9.712;2023-01-15T14:15:56;99036.47;;;6.59;66.67
55068;BME280;40965;52.368;9.712;2023-01-15T14:21:43;99050.84;;;6.31;68.45
55068;BME280;40965;52.368;9.712;2023-01-15T14:24:35;99045.53;;;6.38;67.71
55068;BME280;40965;52.368;9.712;2023-01-15T14:30:37;99040.53;;;6.27;68.30
55068;BME280;40965;52.368;9.712;2023-01-15T14:33:54;99046.63;;;6.25;68.10
55068;BME280;40965;52.368;9.712;2023-01-15T14:36:52;99040.28;;;6.41;66.46
55068;BME280;40965;52.368;9.712;2023-01-15T14:39:38;99026.47;;;6.39;67.13